Time;durP1;ratioP1;P1;durP2;ratioP2;P2;SDS_P1;SDS_P2;PMS_P1;PMS_P2;Temp;Humidity;BMP_temperature;BMP_pressure;BME280_temperature;BME280_humidity;BME280_pressure;Samples;Min_cycle;Max_cycle;Signal;HPM_P1;HPM_P2
2022/09/17 00:01:19;;;;;;;9.88;6.65;;;23.20;62.90;;;;;;5092908;28;20526;-77
2022/09/17 00:03:52;;;;;;;8.27;7.15;;;23.20;63.40;;;;;;5075077;28;20043;-79
2022/09/17 00:06:19;;;;;;;9.00;6.75;;;23.00;63.80;;;;;;5093039;28;20069;-81
2022/09/17 00:08:44;;;;;;;9.25;7.70;;;23.00;63.40;;;;;;5075347;28;20063;-79
2022/09/17 00:11:31;;;;;;;9.40;7.15;;;23.00;63.80;;;;;;5075513;28;20073;-84
2022/09/17 00:13:59;;;;;;;9.75;7.60;;;22.80;63.50;;;;;;5093414;28;20024;-89
2022/09/17 00:16:41;;;;;;;8.68;7.03;;;22.60;64.00;;;;;;5075583;28;20028;-83
2022/09/17 00:19:11;;;;;;;10.70;7.00;;;22.70;64.50;;;;;;5093277;28;20105;-84
2022/09/17 00:21:37;;;;;;;;;;;22.80;64.30;;;;;;5076089;28;20044;-84
2022/09/17 00:24:05;;;;;;;10.70;8.45;;;22.70;64.50;;;;;;5093455;28;19912;-78
2022/09/17 00:26:32;;;;;;;10.70;7.38;;;22.40;64.60;;;;;;5075424;28;20382;-92
2022/09/17 00:28:58;;;;;;;9.50;6.85;;;22.50;64.90;;;;;;5093479;28;20509;-86
2022/09/17 00:31:25;;;;;;;11.63;7.80;;;22.60;64.50;;;;;;5075654;28;20056;-90
2022/09/17 00:33:52;;;;;;;10.50;7.30;;;22.80;63.80;;;;;;5076120;28;20081;-87
2022/09/17 00:36:19;;;;;;;8.52;6.68;;;22.70;64.30;;;;;;5075912;28;20027;-83
2022/09/17 00:38:51;;;;;;;9.55;6.53;;;22.70;63.70;;;;;;5075183;28;20024;-83
2022/09/17 00:41:17;;;;;;;7.97;6.95;;;22.90;63.50;;;;;;4374755;28;10000672;-84
2022/09/17 00:43:50;;;;;;;9.20;7.15;;;23.00;63.10;;;;;;5073480;28;20080;-77
2022/09/17 00:46:44;;;;;;;9.57;7.18;;;23.10;62.90;;;;;;5072980;28;20016;-78
2022/09/17 00:49:27;;;;;;;8.10;6.95;;;23.00;63.00;;;;;;5058255;28;20364;-83
2022/09/17 00:52:00;;;;;;;9.70;6.90;;;22.90;63.10;;;;;;5076230;28;20510;-86
2022/09/17 00:54:26;;;;;;;10.70;7.13;;;22.90;63.60;;;;;;5059168;28;20031;-79
2022/09/17 00:56:52;;;;;;;9.23;6.95;;;22.90;63.10;;;;;;5075998;28;20031;-77
2022/09/17 00:59:21;;;;;;;8.98;6.82;;;22.90;63.30;;;;;;5076381;28;20033;-77
2022/09/17 01:01:47;;;;;;;9.63;6.72;;;22.80;63.10;;;;;;5059124;28;20024;-78
2022/09/17 01:04:31;;;;;;;11.07;6.22;;;22.90;63.20;;;;;;5076517;28;20032;-78
2022/09/17 01:06:56;;;;;;;8.93;6.15;;;23.10;62.30;;;;;;5091651;28;20111;-79
2022/09/17 01:10:12;;;;;;;7.82;6.68;;;23.20;62.20;;;;;;5057911;28;20169;-79
2022/09/17 01:12:53;;;;;;;8.98;6.57;;;23.10;62.00;;;;;;5057433;28;20514;-79
2022/09/17 01:15:38;;;;;;;;;;;23.00;62.40;;;;;;5058524;28;20021;-78
2022/09/17 01:18:10;;;;;;;10.45;6.50;;;23.00;63.10;;;;;;5091937;28;19911;-80
2022/09/17 01:20:56;;;;;;;10.25;6.22;;;23.00;62.60;;;;;;5075937;28;20029;-83
2022/09/17 01:23:49;;;;;;;10.15;6.38;;;22.80;63.10;;;;;;5075753;28;20025;-79
2022/09/17 01:26:42;;;;;;;10.55;6.25;;;22.50;62.90;;;;;;5057831;28;20423;-80
2022/09/17 01:29:37;;;;;;;8.15;6.60;;;22.30;64.00;;;;;;5075879;28;20044;-79
2022/09/17 01:32:41;;;;;;;10.13;6.10;;;22.10;64.30;;;;;;5057607;28;20021;-79
2022/09/17 01:35:34;;;;;;;8.18;5.70;;;22.20;64.00;;;;;;5063361;28;20090;-92
2022/09/17 01:38:33;;;;;;;7.25;5.60;;;22.20;64.00;;;;;;5075432;28;20029;-78
2022/09/17 01:41:09;;;;;;;7.15;5.60;;;22.10;64.10;;;;;;5075433;28;20392;-78
2022/09/17 01:43:56;;;;;;;7.82;5.50;;;22.30;63.80;;;;;;5075492;28;20105;-80
2022/09/17 01:46:48;;;;;;;7.65;5.15;;;22.70;62.80;;;;;;5076513;28;20052;-86
2022/09/17 01:49:15;;;;;;;6.55;5.00;;;22.60;62.60;;;;;;5074973;28;20028;-79
2022/09/17 01:51:45;;;;;;;7.75;5.30;;;22.70;61.80;;;;;;5057402;28;20025;-80
2022/09/17 01:54:32;;;;;;;5.80;4.70;;;22.70;61.80;;;;;;5075711;28;20029;-78
2022/09/17 01:57:08;;;;;;;6.28;4.60;;;22.60;61.70;;;;;;5074994;28;20103;-84
2022/09/17 01:59:43;;;;;;;6.55;4.63;;;22.30;62.00;;;;;;5057212;28;20082;-90
2022/09/17 02:02:33;;;;;;;5.85;4.47;;;22.40;61.60;;;;;;5057132;28;20036;-77
2022/09/17 02:05:14;;;;;;;7.57;4.20;;;22.40;61.40;;;;;;5063534;28;20135;-80
2022/09/17 02:07:49;;;;;;;6.88;4.43;;;22.20;61.40;;;;;;5057641;28;20104;-81
2022/09/17 02:10:21;;;;;;;6.75;3.95;;;22.10;61.20;;;;;;5057408;28;20020;-83
2022/09/17 02:12:55;;;;;;;7.13;3.95;;;22.00;60.90;;;;;;5057369;28;20028;-84
2022/09/17 02:15:32;;;;;;;5.68;4.07;;;21.70;61.60;;;;;;5057073;28;20062;-85
2022/09/17 02:18:42;;;;;;;6.70;3.85;;;21.10;62.20;;;;;;5057715;28;20028;-82
2022/09/17 02:21:16;;;;;;;6.22;4.18;;;21.10;63.00;;;;;;5048738;28;20475;-81
2022/09/17 02:24:06;;;;;;;7.28;4.22;;;21.20;62.50;;;;;;5057166;28;20036;-83
2022/09/17 02:26:36;;;;;;;6.40;3.97;;;21.10;62.60;;;;;;5075065;28;20016;-79
2022/09/17 02:29:10;;;;;;;6.00;3.83;;;21.20;62.50;;;;;;5057041;28;20032;-85
2022/09/17 02:31:36;;;;;;;8.35;4.15;;;21.10;62.80;;;;;;5074839;28;20048;-83
2022/09/17 02:34:04;;;;;;;5.70;3.58;;;21.20;61.80;;;;;;5090160;28;20446;-80
2022/09/17 02:36:36;;;;;;;7.43;4.15;;;21.40;61.60;;;;;;5056294;28;20035;-87
2022/09/17 02:39:06;;;;;;;5.22;3.70;;;21.40;61.30;;;;;;5056715;28;20047;-85
2022/09/17 02:41:52;;;;;;;6.47;3.85;;;21.50;61.50;;;;;;5074101;28;20078;-83
2022/09/17 02:44:42;;;;;;;6.95;4.30;;;21.60;61.40;;;;;;5056453;28;20083;-83
2022/09/17 02:47:36;;;;;;;6.22;3.90;;;21.60;60.80;;;;;;5056536;28;20020;-84
2022/09/17 02:50:17;;;;;;;4.82;3.80;;;21.80;60.60;;;;;;5074479;28;20032;-80
2022/09/17 02:52:53;;;;;;;;;;;21.70;60.80;;;;;;5074956;28;20028;-80
2022/09/17 02:55:19;;;;;;;6.80;4.22;;;21.60;61.00;;;;;;5056686;28;19954;-79
2022/09/17 02:58:12;;;;;;;5.07;3.72;;;21.50;60.90;;;;;;5074224;28;20024;-79
2022/09/17 03:00:39;;;;;;;6.22;3.75;;;21.70;60.60;;;;;;5072322;28;20036;-81
2022/09/17 03:03:10;;;;;;;6.03;3.72;;;21.90;60.50;;;;;;5056305;28;20479;-81
2022/09/17 03:05:38;;;;;;;5.38;3.72;;;22.20;59.60;;;;;;5073837;28;20033;-79
2022/09/17 03:08:08;;;;;;;7.25;4.18;;;22.30;59.20;;;;;;5056131;28;20052;-84
2022/09/17 03:10:34;;;;;;;7.57;3.95;;;22.30;59.20;;;;;;5073362;28;20031;-86
2022/09/17 03:12:59;;;;;;;7.78;3.65;;;22.40;58.90;;;;;;5089485;28;20426;-79
2022/09/17 03:15:25;;;;;;;8.95;4.35;;;22.40;58.90;;;;;;5088942;28;20119;-81
2022/09/17 03:17:51;;;;;;;5.78;4.18;;;22.40;58.50;;;;;;5089567;28;20027;-82
2022/09/17 03:20:17;;;;;;;7.00;3.80;;;22.30;59.20;;;;;;5090103;28;20040;-83
2022/09/17 03:22:43;;;;;;;5.05;3.50;;;21.80;59.60;;;;;;5089796;28;20027;-82
2022/09/17 03:25:10;;;;;;;6.72;3.85;;;21.80;59.70;;;;;;5089231;28;20036;-84
2022/09/17 03:27:36;;;;;;;4.90;3.60;;;21.60;59.60;;;;;;5056225;28;20418;-86
2022/09/17 03:30:01;;;;;;;6.03;3.75;;;21.50;60.30;;;;;;5055959;28;20483;-83
2022/09/17 03:32:27;;;;;;;6.43;3.90;;;21.50;60.00;;;;;;5074104;28;20128;-93
2022/09/17 03:34:53;;;;;;;6.63;3.70;;;21.50;59.70;;;;;;5089636;28;20091;-80
2022/09/17 03:37:19;;;;;;;4.30;3.20;;;21.60;59.70;;;;;;5073825;28;20379;-79
2022/09/17 03:39:45;;;;;;;4.85;3.33;;;21.60;59.60;;;;;;5074110;28;20483;-86
2022/09/17 03:42:11;;;;;;;6.35;3.78;;;21.50;60.20;;;;;;5089074;28;20029;-80
2022/09/17 03:44:36;;;;;;;5.38;3.65;;;21.60;60.10;;;;;;5086370;28;20049;-82
2022/09/17 03:47:02;;;;;;;6.10;3.47;;;21.30;59.90;;;;;;5085864;28;20452;-81
2022/09/17 03:49:28;;;;;;;5.88;3.75;;;21.20;60.60;;;;;;5052401;28;20025;-79
2022/09/17 03:51:54;;;;;;;5.60;3.85;;;20.80;61.30;;;;;;5085775;28;20029;-86
2022/09/17 03:54:19;;;;;;;6.00;3.97;;;20.90;61.10;;;;;;5086127;28;20083;-86
2022/09/17 03:56:45;;;;;;;4.97;3.30;;;20.90;61.20;;;;;;5085947;28;20021;-83
2022/09/17 03:59:11;;;;;;;5.32;3.45;;;21.00;60.70;;;;;;5086039;28;20025;-79
2022/09/17 04:01:36;;;;;;;5.50;3.78;;;20.80;61.00;;;;;;5053343;28;20037;-83
2022/09/17 04:04:03;;;;;;;6.05;3.50;;;20.80;61.80;;;;;;5053627;28;20130;-89
2022/09/17 04:06:29;;;;;;;5.05;3.83;;;20.80;61.00;;;;;;5052375;28;20510;-81
2022/09/17 04:08:55;;;;;;;5.75;3.85;;;20.90;61.10;;;;;;5053671;28;20029;-79
2022/09/17 04:11:22;;;;;;;5.15;3.70;;;20.90;61.20;;;;;;5085867;28;20137;-81
2022/09/17 04:13:47;;;;;;;5.95;3.60;;;20.80;61.00;;;;;;5052441;28;20029;-84
2022/09/17 04:16:13;;;;;;;8.07;3.70;;;20.60;61.30;;;;;;5052747;28;20021;-88
2022/09/17 04:18:39;;;;;;;6.25;3.50;;;20.40;61.80;;;;;;5086013;28;20048;-82
2022/09/17 04:21:05;;;;;;;5.93;3.38;;;20.50;61.70;;;;;;5087396;28;20392;-88
2022/09/17 04:23:31;;;;;;;6.13;3.35;;;20.60;61.40;;;;;;5056107;28;20029;-84
2022/09/17 04:25:57;;;;;;;5.30;3.63;;;20.50;61.50;;;;;;5089563;28;20357;-80
2022/09/17 04:28:22;;;;;;;5.65;3.67;;;20.60;61.60;;;;;;5057244;28;20390;-80
2022/09/17 04:30:48;;;;;;;5.13;3.60;;;20.90;60.90;;;;;;5055867;28;20551;-83
2022/09/17 04:33:14;;;;;;;5.85;3.42;;;20.90;60.60;;;;;;5089761;28;20537;-84
2022/09/17 04:35:39;;;;;;;6.40;3.55;;;21.10;60.30;;;;;;5055775;28;20029;-81
2022/09/17 04:38:05;;;;;;;6.90;3.60;;;20.90;60.70;;;;;;5055756;28;20541;-82
2022/09/17 04:40:31;;;;;;;6.32;3.83;;;21.10;60.10;;;;;;5089396;28;20384;-87
2022/09/17 04:42:58;;;;;;;5.43;3.58;;;21.30;59.90;;;;;;5058311;28;20025;-84
2022/09/17 04:45:24;;;;;;;5.95;3.85;;;21.30;59.80;;;;;;5059120;28;20044;-88
2022/09/17 04:47:50;;;;;;;5.65;3.30;;;21.30;59.90;;;;;;5076554;28;20021;-85
2022/09/17 04:50:20;;;;;;;5.30;3.40;;;21.40;59.40;;;;;;5076804;28;20032;-92
2022/09/17 04:52:46;;;;;;;9.52;3.75;;;21.60;59.30;;;;;;5058561;28;20036;-81
2022/09/17 04:55:13;;;;;;;5.32;3.58;;;21.60;59.30;;;;;;5076521;28;20027;-81
2022/09/17 04:57:47;;;;;;;6.40;3.85;;;21.40;59.40;;;;;;5076652;28;20025;-89
2022/09/17 05:00:14;;;;;;;6.85;3.25;;;21.40;59.60;;;;;;5058570;28;20029;-78
2022/09/17 05:02:39;;;;;;;5.35;3.58;;;21.40;59.30;;;;;;5076354;28;20383;-82
2022/09/17 05:05:05;;;;;;;4.90;3.25;;;21.20;60.20;;;;;;5092035;28;20491;-87
2022/09/17 05:07:31;;;;;;;5.15;3.58;;;21.20;60.00;;;;;;5092354;28;20025;-84
2022/09/17 05:09:56;;;;;;;7.07;3.60;;;21.40;59.50;;;;;;5059076;28;20497;-80
2022/09/17 05:12:22;;;;;;;5.22;3.15;;;21.30;59.70;;;;;;5092139;28;20024;-86
2022/09/17 05:14:48;;;;;;;5.75;3.92;;;21.30;59.90;;;;;;5076197;28;20036;-79
2022/09/17 05:17:13;;;;;;;4.80;3.40;;;21.50;59.60;;;;;;5091612;28;20162;-81
2022/09/17 05:19:39;;;;;;;5.60;3.53;;;21.70;59.10;;;;;;5076190;28;20103;-83
2022/09/17 05:22:05;;;;;;;5.68;3.20;;;21.80;58.90;;;;;;5091679;28;20073;-80
2022/09/17 05:24:30;;;;;;;5.78;3.58;;;21.90;58.50;;;;;;5091373;28;20032;-81
2022/09/17 05:26:56;;;;;;;5.97;3.42;;;21.90;58.10;;;;;;5091461;28;20032;-81
2022/09/17 05:29:21;;;;;;;5.45;3.78;;;22.00;58.10;;;;;;5075342;28;20020;-82
2022/09/17 05:31:47;;;;;;;7.03;3.42;;;22.10;57.80;;;;;;5075266;28;20039;-81
2022/09/17 05:34:13;;;;;;;6.30;3.90;;;22.30;57.80;;;;;;5090441;28;20025;-84
2022/09/17 05:36:41;;;;;;;5.90;3.50;;;22.40;57.10;;;;;;5091243;28;20016;-84
2022/09/17 05:39:07;;;;;;;4.88;3.22;;;22.40;57.20;;;;;;5057833;28;20047;-84
2022/09/17 05:41:33;;;;;;;5.25;3.33;;;22.20;57.70;;;;;;5091590;28;20384;-80
2022/09/17 05:43:59;;;;;;;6.10;3.20;;;22.10;58.00;;;;;;5091269;28;20121;-80
2022/09/17 05:46:24;;;;;;;5.88;3.50;;;21.80;58.20;;;;;;5075580;28;20406;-85
2022/09/17 05:48:50;;;;;;;6.93;3.47;;;21.60;58.70;;;;;;5091127;28;20075;-80
2022/09/17 05:51:17;;;;;;;7.13;3.50;;;21.50;58.80;;;;;;5090778;28;20028;-83
2022/09/17 05:53:43;;;;;;;5.22;3.50;;;21.70;58.20;;;;;;5057718;28;20380;-88
2022/09/17 05:56:08;;;;;;;6.25;3.47;;;21.70;58.50;;;;;;5090799;28;20494;-87
2022/09/17 05:58:34;;;;;;;5.25;3.30;;;21.70;58.40;;;;;;5091114;28;20024;-92
2022/09/17 06:01:01;;;;;;;5.97;3.70;;;21.70;58.50;;;;;;5057039;28;20028;-78
2022/09/17 06:03:29;;;;;;;5.57;3.63;;;21.80;58.60;;;;;;5090771;28;20125;-80
2022/09/17 06:05:59;;;;;;;6.82;3.30;;;21.50;58.90;;;;;;5090445;28;20060;-88
2022/09/17 06:08:26;;;;;;;4.90;3.35;;;21.40;59.00;;;;;;5091203;28;20024;-81
2022/09/17 06:10:52;;;;;;;5.60;3.40;;;21.30;58.90;;;;;;5057594;28;20036;-89
2022/09/17 06:13:19;;;;;;;5.38;3.70;;;20.90;59.70;;;;;;5057687;28;20020;-79
2022/09/17 06:15:52;;;;;;;6.05;3.70;;;21.00;59.80;;;;;;5057726;28;20021;-79
2022/09/17 06:18:18;;;;;;;5.75;3.70;;;21.10;59.60;;;;;;5075146;28;20074;-86
2022/09/17 06:20:58;;;;;;;5.90;3.75;;;21.20;59.20;;;;;;5075602;28;20033;-80
2022/09/17 06:23:24;;;;;;;8.27;3.03;;;21.20;59.40;;;;;;5057614;28;20088;-87
2022/09/17 06:25:58;;;;;;;5.75;3.30;;;21.30;59.30;;;;;;5056984;28;20574;-84
2022/09/17 06:28:25;;;;;;;5.40;3.10;;;21.30;59.30;;;;;;5057508;28;20020;-89
2022/09/17 06:30:53;;;;;;;5.78;3.20;;;21.20;59.50;;;;;;5075355;28;20360;-80
2022/09/17 06:33:20;;;;;;;5.38;3.35;;;21.40;59.10;;;;;;5056712;28;20464;-81
2022/09/17 06:35:46;;;;;;;5.47;3.40;;;21.60;59.10;;;;;;5057136;28;20032;-86
2022/09/17 06:38:12;;;;;;;5.85;4.13;;;21.80;58.50;;;;;;5090908;28;20021;-82
2022/09/17 06:40:37;;;;;;;5.75;3.28;;;22.00;58.20;;;;;;5056820;28;20040;-83
2022/09/17 06:43:03;;;;;;;5.38;3.50;;;22.20;58.10;;;;;;5056825;28;20024;-79
2022/09/17 06:45:29;;;;;;;5.47;3.50;;;22.30;57.70;;;;;;5073793;28;20116;-89
2022/09/17 06:47:56;;;;;;;8.23;3.35;;;22.20;57.30;;;;;;5090839;28;20071;-88
2022/09/17 06:50:36;;;;;;;6.60;3.17;;;22.00;57.40;;;;;;5056609;28;20115;-84
2022/09/17 06:53:05;;;;;;;5.88;3.40;;;22.00;58.00;;;;;;5074040;28;20471;-90
2022/09/17 06:55:31;;;;;;;7.40;3.28;;;22.00;57.60;;;;;;5073608;28;20399;-87
2022/09/17 06:57:58;;;;;;;5.07;3.22;;;21.90;57.90;;;;;;4726449;28;9999792;-84
2022/09/17 07:00:24;;;;;;;9.13;3.33;;;21.80;57.80;;;;;;5095760;28;20526;-79
2022/09/17 07:03:00;;;;;;;5.57;3.42;;;21.90;58.10;;;;;;5112666;28;20024;-88
2022/09/17 07:05:31;;;;;;;5.97;3.55;;;22.00;57.50;;;;;;5111519;28;20043;-78
2022/09/17 07:08:02;;;;;;;9.57;3.25;;;22.00;57.50;;;;;;5095937;28;20027;-89
2022/09/17 07:10:27;;;;;;;7.22;3.65;;;22.10;57.50;;;;;;5095572;28;20037;-86
2022/09/17 07:12:59;;;;;;;8.32;3.50;;;22.10;57.00;;;;;;5095117;28;20020;-86
2022/09/17 07:15:25;;;;;;;5.82;3.10;;;22.20;57.00;;;;;;5094922;28;20024;-79
2022/09/17 07:17:53;;;;;;;6.55;3.28;;;22.40;56.50;;;;;;5113393;28;20023;-90
2022/09/17 07:20:19;;;;;;;4.57;3.17;;;22.50;56.60;;;;;;5094909;28;20066;-83
2022/09/17 07:22:45;;;;;;;6.68;3.38;;;22.50;56.30;;;;;;5095105;28;20023;-84
2022/09/17 07:25:11;;;;;;;5.75;3.30;;;22.40;56.50;;;;;;5094546;28;20373;-81
2022/09/17 07:27:37;;;;;;;6.05;2.90;;;22.20;57.50;;;;;;5113472;28;20106;-79
2022/09/17 07:30:03;;;;;;;5.40;2.88;;;22.30;57.60;;;;;;5095082;28;20074;-83
2022/09/17 07:32:30;;;;;;;5.55;3.03;;;22.60;57.00;;;;;;5095768;28;20023;-83
2022/09/17 07:34:56;;;;;;;5.32;3.00;;;22.60;57.60;;;;;;5095030;28;20370;-83
2022/09/17 07:37:22;;;;;;;6.70;3.15;;;22.80;56.50;;;;;;5095616;28;20026;-85
2022/09/17 07:39:47;;;;;;;13.93;3.55;;;23.00;56.50;;;;;;5095690;28;20027;-82
2022/09/17 07:42:15;;;;;;;5.15;3.10;;;23.10;56.40;;;;;;5095697;28;20020;-93
2022/09/17 07:44:41;;;;;;;6.03;3.28;;;23.30;55.70;;;;;;5095030;28;20494;-83
2022/09/17 07:47:07;;;;;;;5.10;2.97;;;23.50;55.40;;;;;;5113122;28;20027;-80
2022/09/17 07:49:32;;;;;;;5.60;3.03;;;23.30;55.20;;;;;;5095640;28;20031;-92
2022/09/17 07:52:05;;;;;;;6.25;3.13;;;23.10;55.70;;;;;;5095499;28;20023;-83
2022/09/17 07:54:33;;;;;;;12.13;3.20;;;23.10;56.10;;;;;;5095884;28;20449;-81
2022/09/17 07:56:59;;;;;;;9.55;2.80;;;22.90;56.00;;;;;;5094907;28;20072;-81
2022/09/17 07:59:25;;;;;;;5.03;3.00;;;22.70;56.10;;;;;;5095330;28;20048;-81
2022/09/17 08:01:51;;;;;;;7.50;3.17;;;22.50;56.70;;;;;;5096104;28;20099;-87
2022/09/17 08:04:17;;;;;;;5.00;3.10;;;22.30;57.10;;;;;;5096174;28;20036;-84
2022/09/17 08:06:47;;;;;;;4.45;2.88;;;22.20;56.80;;;;;;5096103;28;20030;-83
2022/09/17 08:09:14;;;;;;;4.40;2.80;;;22.20;56.60;;;;;;5096162;28;20062;-84
2022/09/17 08:11:40;;;;;;;5.43;2.80;;;22.50;56.60;;;;;;5096409;28;20084;-82
2022/09/17 08:14:09;;;;;;;5.25;3.30;;;22.60;57.00;;;;;;5114546;28;20474;-85
2022/09/17 08:16:34;;;;;;;5.40;2.80;;;22.60;56.60;;;;;;5096626;28;20487;-85
2022/09/17 08:19:00;;;;;;;5.38;2.83;;;22.50;56.90;;;;;;5096106;28;20161;-88
2022/09/17 08:21:26;;;;;;;5.70;3.00;;;22.70;56.50;;;;;;5095926;28;20032;-82
2022/09/17 08:23:52;;;;;;;5.65;3.00;;;22.90;56.30;;;;;;5096068;28;20024;-81
2022/09/17 08:26:21;;;;;;;4.78;3.17;;;22.80;56.20;;;;;;5113887;28;20512;-82
2022/09/17 08:28:57;;;;;;;6.70;3.47;;;22.60;56.00;;;;;;4739771;28;10000430;-85
2022/09/17 08:31:27;;;;;;;4.65;3.00;;;22.50;56.60;;;;;;5073613;28;20126;-80
2022/09/17 08:33:52;;;;;;;4.78;3.05;;;22.30;56.90;;;;;;5073880;28;20064;-78
2022/09/17 08:36:21;;;;;;;4.63;2.70;;;22.00;57.20;;;;;;5074201;28;20020;-80
2022/09/17 08:38:48;;;;;;;4.80;3.10;;;22.00;57.90;;;;;;5074334;28;20020;-86
2022/09/17 08:41:20;;;;;;;5.15;3.38;;;22.10;57.80;;;;;;5075369;28;20032;-86
2022/09/17 08:43:54;;;;;;;5.13;3.15;;;22.10;57.40;;;;;;5074870;28;20648;-85
2022/09/17 08:46:21;;;;;;;13.50;3.70;;;22.10;57.30;;;;;;5074409;28;20114;-84
2022/09/17 08:48:50;;;;;;;6.13;3.72;;;22.40;57.50;;;;;;5067506;28;20111;-87
2022/09/17 08:51:41;;;;;;;4.95;3.30;;;22.50;56.60;;;;;;5072638;28;20108;-78
2022/09/17 08:54:12;;;;;;;8.77;3.75;;;22.50;56.40;;;;;;5083037;28;20016;-82
2022/09/17 08:56:43;;;;;;;7.40;3.80;;;22.30;56.70;;;;;;5073068;28;20031;-80
2022/09/17 08:59:32;;;;;;;9.82;4.20;;;22.40;57.10;;;;;;5087100;28;20040;-82
2022/09/17 09:02:05;;;;;;;7.40;3.72;;;22.50;56.70;;;;;;5064734;28;20382;-79
2022/09/17 09:04:47;;;;;;;6.32;4.18;;;22.50;56.70;;;;;;5072156;28;20044;-85
2022/09/17 09:07:19;;;;;;;7.80;3.97;;;22.20;57.00;;;;;;5069942;28;20013;-78
2022/09/17 09:09:54;;;;;;;5.80;3.50;;;22.30;56.80;;;;;;5074691;28;20023;-83
2022/09/17 09:12:27;;;;;;;5.85;3.70;;;22.50;57.30;;;;;;5078121;28;20024;-83
2022/09/17 09:15:02;;;;;;;4.80;3.03;;;22.70;56.60;;;;;;5078093;28;20482;-84
2022/09/17 09:17:40;;;;;;;5.47;3.97;;;22.60;56.90;;;;;;5092563;28;20064;-80
2022/09/17 09:20:19;;;;;;;6.07;3.50;;;22.70;55.80;;;;;;5095306;28;20028;-81
2022/09/17 09:22:46;;;;;;;7.93;3.47;;;22.40;56.70;;;;;;5058081;28;20028;-85
2022/09/17 09:25:26;;;;;;;9.20;4.00;;;22.40;57.10;;;;;;5086071;28;20058;-85
2022/09/17 09:28:20;;;;;;;4.95;3.40;;;22.30;57.10;;;;;;5065755;28;20024;-83
2022/09/17 09:30:57;;;;;;;7.57;3.90;;;22.50;56.90;;;;;;5058283;28;20032;-83
2022/09/17 09:33:30;;;;;;;6.30;3.50;;;22.50;56.80;;;;;;5078979;28;20020;-81
2022/09/17 09:35:55;;;;;;;6.00;3.90;;;22.50;56.40;;;;;;5071173;28;20016;-86
2022/09/17 09:38:32;;;;;;;7.63;3.70;;;22.40;56.80;;;;;;5069976;28;20024;-81
2022/09/17 09:41:16;;;;;;;5.30;3.50;;;22.40;56.60;;;;;;5089536;28;20466;-85
2022/09/17 09:44:02;;;;;;;7.15;4.10;;;22.50;56.80;;;;;;5092469;28;20105;-81
2022/09/17 09:47:01;;;;;;;5.35;3.55;;;22.70;56.70;;;;;;5076144;28;20032;-86
2022/09/17 09:49:45;;;;;;;5.55;4.00;;;23.00;56.40;;;;;;5086204;28;20032;-82
2022/09/17 09:52:43;;;;;;;6.53;3.70;;;23.10;56.20;;;;;;5057630;28;20383;-80
2022/09/17 09:55:30;;;;;;;5.80;3.70;;;23.10;55.50;;;;;;5093941;28;20028;-85
2022/09/17 09:58:08;;;;;;;6.75;3.47;;;23.00;55.60;;;;;;5077034;28;20031;-78
2022/09/17 10:00:39;;;;;;;23.60;4.25;;;22.90;55.90;;;;;;5095744;28;20042;-81
2022/09/17 10:03:21;;;;;;;17.02;3.67;;;22.80;56.10;;;;;;5077864;28;20386;-78
2022/09/17 10:06:04;;;;;;;21.83;4.65;;;22.80;55.60;;;;;;5077163;28;20074;-87
2022/09/17 10:08:33;;;;;;;6.47;3.92;;;22.60;56.40;;;;;;5061914;28;20047;-80
2022/09/17 10:11:15;;;;;;;5.43;3.22;;;22.70;55.80;;;;;;5062082;28;20103;-79
2022/09/17 10:13:42;;;;;;;6.25;3.47;;;22.90;55.90;;;;;;5072878;28;20090;-87
2022/09/17 10:16:26;;;;;;;6.50;3.15;;;22.90;56.00;;;;;;5082866;28;20035;-84
2022/09/17 10:19:23;;;;;;;4.72;2.80;;;22.70;54.70;;;;;;5074146;28;20034;-81
2022/09/17 10:21:50;;;;;;;10.27;2.83;;;22.70;54.60;;;;;;5074496;28;20032;-84
2022/09/17 10:24:27;;;;;;;6.13;2.70;;;22.70;55.40;;;;;;5094026;28;20088;-79
2022/09/17 10:27:02;;;;;;;4.80;2.40;;;22.50;54.00;;;;;;5075859;28;20103;-86
2022/09/17 10:29:29;;;;;;;5.95;2.50;;;22.60;54.20;;;;;;5076790;28;20032;-84
2022/09/17 10:31:56;;;;;;;5.68;2.80;;;22.60;54.30;;;;;;5089891;28;20024;-87
2022/09/17 10:34:25;;;;;;;5.30;2.40;;;22.60;53.70;;;;;;5076942;28;20030;-80
2022/09/17 10:36:53;;;;;;;4.53;2.25;;;22.80;53.60;;;;;;5061261;28;20033;-85
2022/09/17 10:39:27;;;;;;;6.20;2.55;;;23.00;54.20;;;;;;4360375;28;10000745;-83
2022/09/17 10:42:18;;;;;;;9.63;3.53;;;23.20;52.80;;;;;;5064739;28;20164;-83
2022/09/17 10:44:51;;;;;;;8.88;3.03;;;22.80;52.50;;;;;;5062147;28;20067;-81
2022/09/17 10:47:32;;;;;;;6.07;2.50;;;22.60;52.50;;;;;;5072664;28;20090;-82
2022/09/17 10:50:16;;;;;;;6.95;4.22;;;22.30;52.90;;;;;;5072883;28;20114;-88
2022/09/17 10:52:51;;;;;;;8.02;3.05;;;21.90;53.60;;;;;;5067189;28;20085;-81
2022/09/17 10:55:32;;;;;;;5.32;2.80;;;22.30;53.20;;;;;;5073627;28;20036;-81
2022/09/17 10:57:57;;;;;;;;;;;22.40;53.70;;;;;;5063496;28;20033;-79
2022/09/17 11:00:23;;;;;;;6.03;2.13;;;22.30;52.70;;;;;;5054767;28;19927;-79
2022/09/17 11:02:55;;;;;;;6.18;2.33;;;22.30;53.00;;;;;;5055517;28;20033;-85
2022/09/17 11:05:44;;;;;;;7.43;2.50;;;22.60;52.30;;;;;;5055986;28;20135;-88
2022/09/17 11:08:22;;;;;;;5.70;2.20;;;22.40;52.10;;;;;;5055862;28;20117;-84
2022/09/17 11:10:47;;;;;;;5.22;2.30;;;22.20;51.60;;;;;;5072166;28;20024;-84
2022/09/17 11:13:35;;;;;;;6.53;2.25;;;22.40;52.10;;;;;;5071616;28;20027;-80
2022/09/17 11:16:04;;;;;;;7.07;2.67;;;22.40;52.20;;;;;;5055797;28;20536;-87
2022/09/17 11:18:37;;;;;;;5.40;2.30;;;22.40;52.40;;;;;;5068544;28;20028;-83
2022/09/17 11:21:33;;;;;;;5.22;2.10;;;22.50;52.50;;;;;;5062884;28;20016;-84
2022/09/17 11:24:17;;;;;;;5.25;2.10;;;22.70;51.70;;;;;;5087230;28;20039;-80
2022/09/17 11:26:53;;;;;;;6.22;2.22;;;22.30;52.50;;;;;;5076108;28;20101;-85
2022/09/17 11:29:48;;;;;;;12.43;6.40;;;22.40;52.80;;;;;;5093467;28;20020;-83
2022/09/17 11:32:28;;;;;;;10.73;5.10;;;22.40;53.50;;;;;;5075630;28;20039;-84
2022/09/17 11:35:14;;;;;;;;;;;22.10;52.60;;;;;;5074414;28;20021;-84
2022/09/17 11:37:48;;;;;;;5.07;2.55;;;21.90;53.80;;;;;;5072135;28;19915;-86
2022/09/17 11:40:42;;;;;;;5.03;2.53;;;21.70;53.20;;;;;;5074621;28;20028;-83
2022/09/17 11:43:32;;;;;;;8.52;2.72;;;21.50;54.10;;;;;;5071116;28;20036;-85
2022/09/17 11:46:07;;;;;;;4.30;2.20;;;21.70;54.20;;;;;;5059399;28;20520;-82
2022/09/17 11:49:05;;;;;;;4.82;2.55;;;22.00;53.40;;;;;;5066832;28;20025;-80
2022/09/17 11:51:39;;;;;;;10.23;2.85;;;22.10;53.50;;;;;;5081225;28;20132;-78
2022/09/17 11:54:13;;;;;;;4.10;2.20;;;22.10;52.60;;;;;;5062257;28;20064;-82
2022/09/17 11:56:44;;;;;;;5.35;2.22;;;21.80;53.50;;;;;;5065568;28;20013;-79
2022/09/17 11:59:24;;;;;;;5.75;2.50;;;22.00;53.90;;;;;;5074262;28;20115;-79
2022/09/17 12:01:53;;;;;;;5.50;2.30;;;22.30;53.10;;;;;;5092770;28;20099;-81
2022/09/17 12:05:07;;;;;;;4.65;2.20;;;22.50;53.20;;;;;;5074452;28;20035;-85
2022/09/17 12:07:36;;;;;;;4.25;2.15;;;22.20;52.80;;;;;;5057304;28;20036;-83
2022/09/17 12:10:17;;;;;;;7.32;2.65;;;22.30;53.30;;;;;;5093029;28;20016;-82
2022/09/17 12:12:53;;;;;;;5.82;2.38;;;22.50;52.40;;;;;;5075905;28;20083;-88
2022/09/17 12:15:26;;;;;;;6.88;2.33;;;22.40;52.00;;;;;;5093331;28;20043;-78
2022/09/17 12:18:22;;;;;;;4.38;2.47;;;21.80;52.80;;;;;;5075799;28;20066;-81
2022/09/17 12:20:52;;;;;;;6.32;2.60;;;21.50;53.40;;;;;;5014244;28;20040;-79
2022/09/17 12:23:48;;;;;;;6.28;2.40;;;21.80;54.10;;;;;;5029320;28;20046;-89
2022/09/17 12:26:54;;;;;;;5.13;2.77;;;22.20;53.40;;;;;;4566713;29;10000431;-81
2022/09/17 12:29:40;;;;;;;4.78;2.60;;;22.20;53.50;;;;;;4915152;29;20031;-85
2022/09/17 12:32:17;;;;;;;5.57;2.70;;;22.80;52.70;;;;;;4921756;29;20069;-85
2022/09/17 12:35:20;;;;;;;5.25;2.45;;;22.50;52.50;;;;;;4927063;29;20028;-83
2022/09/17 12:38:12;;;;;;;7.60;2.58;;;22.60;53.20;;;;;;4930372;29;20036;-77
2022/09/17 12:40:56;;;;;;;5.97;2.60;;;22.90;53.10;;;;;;4924084;29;20189;-80
2022/09/17 12:43:28;;;;;;;6.18;2.50;;;23.00;52.30;;;;;;4929355;29;20075;-77
2022/09/17 12:46:05;;;;;;;5.70;2.70;;;22.90;52.90;;;;;;4901209;29;20059;-84
2022/09/17 12:48:49;;;;;;;5.32;2.80;;;22.90;52.20;;;;;;4912177;29;20029;-82
2022/09/17 12:51:52;;;;;;;5.65;3.00;;;23.00;52.00;;;;;;4908011;29;20137;-85
2022/09/17 12:54:36;;;;;;;4.43;2.40;;;23.30;52.00;;;;;;4911974;29;20148;-83
2022/09/17 12:57:20;;;;;;;8.05;2.88;;;23.20;51.80;;;;;;4944331;28;21764;-80
2022/09/17 13:00:06;;;;;;;5.35;2.83;;;23.40;52.90;;;;;;4975482;28;20027;-86
2022/09/17 13:02:45;;;;;;;7.13;2.65;;;23.30;52.30;;;;;;4990756;28;20093;-81
2022/09/17 13:05:21;;;;;;;4.80;2.75;;;22.60;52.40;;;;;;5074536;28;20067;-87
2022/09/17 13:07:52;;;;;;;5.28;2.60;;;22.50;52.80;;;;;;5060830;28;20028;-84
2022/09/17 13:10:39;;;;;;;5.22;2.40;;;22.10;53.20;;;;;;5071904;28;20055;-82
2022/09/17 13:13:44;;;;;;;5.97;2.53;;;21.90;53.70;;;;;;5078095;28;20032;-77
2022/09/17 13:16:19;;;;;;;3.78;2.25;;;21.70;53.40;;;;;;5085927;28;20044;-82
2022/09/17 13:19:03;;;;;;;7.43;2.80;;;21.90;54.20;;;;;;5071923;28;20425;-81
2022/09/17 13:21:49;;;;;;;4.72;2.38;;;21.50;53.80;;;;;;5072858;28;20061;-82